sensor_id;sensor_type;location;lat;lon;timestamp;P1;durP1;ratioP1;P2;durP2;ratioP2
8964;SDS011;4517;49.020;12.066;2024-02-26T00:01:43;65.73;;;35.17;;
8964;SDS011;4517;49.020;12.066;2024-02-26T00:04:09;53.73;;;33.73;;
8964;SDS011;4517;49.020;12.066;2024-02-26T00:06:35;57.67;;;35.27;;
8964;SDS011;4517;49.020;12.066;2024-02-26T00:09:02;64.07;;;35.60;;
8964;SDS011;4517;49.020;12.066;2024-02-26T00:11:31;69.13;;;40.03;;
8964;SDS011;4517;49.020;12.066;2024-02-26T00:13:57;77.43;;;38.30;;
8964;SDS011;4517;49.020;12.066;2024-02-26T00:16:23;69.27;;;38.03;;
8964;SDS011;4517;49.020;12.066;2024-02-26T00:18:49;70.90;;;41.43;;
8964;SDS011;4517;49.020;12.066;2024-02-26T00:21:15;70.23;;;39.27;;
8964;SDS011;4517;49.020;12.066;2024-02-26T00:23:41;76.43;;;40.80;;
8964;SDS011;4517;49.020;12.066;2024-02-26T00:26:07;74.20;;;42.03;;
8964;SDS011;4517;49.020;12.066;2024-02-26T00:28:34;66.13;;;39.93;;
8964;SDS011;4517;49.020;12.066;2024-02-26T00:31:00;66.27;;;39.00;;
8964;SDS011;4517;49.020;12.066;2024-02-26T00:33:26;77.50;;;41.30;;
8964;SDS011;4517;49.020;12.066;2024-02-26T00:35:52;74.00;;;41.27;;
8964;SDS011;4517;49.020;12.066;2024-02-26T00:38:18;77.10;;;40.30;;
8964;SDS011;4517;49.020;12.066;2024-02-26T00:40:43;90.03;;;42.10;;
8964;SDS011;4517;49.020;12.066;2024-02-26T00:43:10;76.60;;;39.80;;
8964;SDS011;4517;49.020;12.066;2024-02-26T00:45:36;72.37;;;39.47;;
8964;SDS011;4517;49.020;12.066;2024-02-26T00:48:02;68.30;;;39.60;;
8964;SDS011;4517;49.020;12.066;2024-02-26T00:50:32;64.73;;;38.50;;
8964;SDS011;4517;49.020;12.066;2024-02-26T00:52:58;78.73;;;38.10;;
8964;SDS011;4517;49.020;12.066;2024-02-26T00:55:24;85.10;;;40.07;;
8964;SDS011;4517;49.020;12.066;2024-02-26T00:57:50;84.90;;;41.27;;
8964;SDS011;4517;49.020;12.066;2024-02-26T01:00:16;78.00;;;41.83;;
8964;SDS011;4517;49.020;12.066;2024-02-26T01:02:42;72.47;;;42.47;;
8964;SDS011;4517;49.020;12.066;2024-02-26T01:05:11;78.63;;;42.20;;
8964;SDS011;4517;49.020;12.066;2024-02-26T01:07:37;79.50;;;42.40;;
8964;SDS011;4517;49.020;12.066;2024-02-26T01:10:04;74.83;;;42.43;;
8964;SDS011;4517;49.020;12.066;2024-02-26T01:12:31;73.43;;;41.93;;
8964;SDS011;4517;49.020;12.066;2024-02-26T01:14:56;77.40;;;41.97;;
8964;SDS011;4517;49.020;12.066;2024-02-26T01:17:22;70.97;;;38.87;;
8964;SDS011;4517;49.020;12.066;2024-02-26T01:19:48;81.40;;;41.07;;
8964;SDS011;4517;49.020;12.066;2024-02-26T01:22:14;76.10;;;39.00;;
8964;SDS011;4517;49.020;12.066;2024-02-26T01:24:40;74.53;;;39.87;;
8964;SDS011;4517;49.020;12.066;2024-02-26T01:27:06;70.40;;;40.57;;
8964;SDS011;4517;49.020;12.066;2024-02-26T01:29:34;69.33;;;38.10;;
8964;SDS011;4517;49.020;12.066;2024-02-26T01:32:00;75.27;;;42.60;;
8964;SDS011;4517;49.020;12.066;2024-02-26T01:34:26;70.63;;;40.97;;
8964;SDS011;4517;49.020;12.066;2024-02-26T01:36:52;64.17;;;39.90;;
8964;SDS011;4517;49.020;12.066;2024-02-26T01:39:18;65.60;;;39.33;;
8964;SDS011;4517;49.020;12.066;2024-02-26T01:41:44;65.47;;;40.83;;
8964;SDS011;4517;49.020;12.066;2024-02-26T01:44:11;70.30;;;38.87;;
8964;SDS011;4517;49.020;12.066;2024-02-26T01:46:41;64.03;;;38.13;;
8964;SDS011;4517;49.020;12.066;2024-02-26T01:49:07;63.37;;;37.90;;
8964;SDS011;4517;49.020;12.066;2024-02-26T01:51:34;66.53;;;38.50;;
8964;SDS011;4517;49.020;12.066;2024-02-26T01:54:01;67.90;;;37.80;;
8964;SDS011;4517;49.020;12.066;2024-02-26T01:56:28;55.30;;;37.10;;
8964;SDS011;4517;49.020;12.066;2024-02-26T01:58:57;56.87;;;37.60;;
8964;SDS011;4517;49.020;12.066;2024-02-26T02:01:25;67.13;;;34.20;;
8964;SDS011;4517;49.020;12.066;2024-02-26T02:03:51;60.13;;;36.50;;
8964;SDS011;4517;49.020;12.066;2024-02-26T02:06:17;58.43;;;35.70;;
8964;SDS011;4517;49.020;12.066;2024-02-26T02:08:43;60.57;;;36.17;;
8964;SDS011;4517;49.020;12.066;2024-02-26T02:11:10;63.63;;;36.37;;
8964;SDS011;4517;49.020;12.066;2024-02-26T02:13:39;58.37;;;35.63;;
8964;SDS011;4517;49.020;12.066;2024-02-26T02:16:06;65.13;;;35.10;;
8964;SDS011;4517;49.020;12.066;2024-02-26T02:18:32;49.03;;;35.57;;
8964;SDS011;4517;49.020;12.066;2024-02-26T02:21:01;67.10;;;35.27;;
8964;SDS011;4517;49.020;12.066;2024-02-26T02:23:27;61.27;;;36.27;;
8964;SDS011;4517;49.020;12.066;2024-02-26T02:25:53;61.77;;;36.13;;
8964;SDS011;4517;49.020;12.066;2024-02-26T02:28:20;55.10;;;34.20;;
8964;SDS011;4517;49.020;12.066;2024-02-26T02:30:46;47.47;;;34.00;;
8964;SDS011;4517;49.020;12.066;2024-02-26T02:33:12;57.10;;;35.93;;
8964;SDS011;4517;49.020;12.066;2024-02-26T02:35:40;53.73;;;34.57;;
8964;SDS011;4517;49.020;12.066;2024-02-26T02:38:06;48.10;;;34.27;;
8964;SDS011;4517;49.020;12.066;2024-02-26T02:40:32;44.10;;;32.53;;
8964;SDS011;4517;49.020;12.066;2024-02-26T02:42:58;47.73;;;32.47;;
8964;SDS011;4517;49.020;12.066;2024-02-26T02:45:25;50.13;;;32.47;;
8964;SDS011;4517;49.020;12.066;2024-02-26T02:47:51;45.60;;;32.57;;
8964;SDS011;4517;49.020;12.066;2024-02-26T02:50:17;43.70;;;31.80;;
8964;SDS011;4517;49.020;12.066;2024-02-26T02:52:43;45.47;;;32.03;;
8964;SDS011;4517;49.020;12.066;2024-02-26T02:55:09;44.87;;;31.67;;
8964;SDS011;4517;49.020;12.066;2024-02-26T02:57:35;48.43;;;34.50;;
8964;SDS011;4517;49.020;12.066;2024-02-26T03:00:06;41.73;;;32.93;;
8964;SDS011;4517;49.020;12.066;2024-02-26T03:02:32;37.17;;;31.00;;
8964;SDS011;4517;49.020;12.066;2024-02-26T03:05:00;54.63;;;33.23;;
8964;SDS011;4517;49.020;12.066;2024-02-26T03:07:27;51.00;;;32.00;;
8964;SDS011;4517;49.020;12.066;2024-02-26T03:09:53;46.83;;;31.77;;
8964;SDS011;4517;49.020;12.066;2024-02-26T03:12:19;39.57;;;31.13;;
8964;SDS011;4517;49.020;12.066;2024-02-26T03:14:45;42.60;;;30.40;;
8964;SDS011;4517;49.020;12.066;2024-02-26T03:17:11;45.77;;;31.50;;
8964;SDS011;4517;49.020;12.066;2024-02-26T03:19:37;45.97;;;30.63;;
8964;SDS011;4517;49.020;12.066;2024-02-26T03:22:03;38.63;;;30.50;;
8964;SDS011;4517;49.020;12.066;2024-02-26T03:24:29;52.80;;;31.57;;
8964;SDS011;4517;49.020;12.066;2024-02-26T03:26:55;47.00;;;31.60;;
8964;SDS011;4517;49.020;12.066;2024-02-26T03:29:21;52.97;;;31.30;;
8964;SDS011;4517;49.020;12.066;2024-02-26T03:31:47;44.20;;;30.40;;
8964;SDS011;4517;49.020;12.066;2024-02-26T03:34:13;46.10;;;30.97;;
8964;SDS011;4517;49.020;12.066;2024-02-26T03:36:40;41.50;;;29.00;;
8964;SDS011;4517;49.020;12.066;2024-02-26T03:39:06;45.97;;;30.90;;
8964;SDS011;4517;49.020;12.066;2024-02-26T03:41:35;44.13;;;31.60;;
8964;SDS011;4517;49.020;12.066;2024-02-26T03:44:01;42.93;;;30.17;;
8964;SDS011;4517;49.020;12.066;2024-02-26T03:46:27;50.27;;;30.93;;
8964;SDS011;4517;49.020;12.066;2024-02-26T03:48:54;52.00;;;32.40;;
8964;SDS011;4517;49.020;12.066;2024-02-26T03:51:20;52.27;;;31.80;;
8964;SDS011;4517;49.020;12.066;2024-02-26T03:53:46;41.80;;;32.20;;
8964;SDS011;4517;49.020;12.066;2024-02-26T03:56:12;50.20;;;31.60;;
8964;SDS011;4517;49.020;12.066;2024-02-26T03:58:41;51.60;;;30.90;;
8964;SDS011;4517;49.020;12.066;2024-02-26T04:01:07;49.10;;;32.33;;
8964;SDS011;4517;49.020;12.066;2024-02-26T04:03:34;38.37;;;30.33;;
8964;SDS011;4517;49.020;12.066;2024-02-26T04:06:00;39.10;;;29.57;;
8964;SDS011;4517;49.020;12.066;2024-02-26T04:08:26;41.97;;;30.80;;
8964;SDS011;4517;49.020;12.066;2024-02-26T04:10:52;44.80;;;29.97;;
8964;SDS011;4517;49.020;12.066;2024-02-26T04:13:18;44.50;;;29.70;;
8964;SDS011;4517;49.020;12.066;2024-02-26T04:15:44;39.30;;;30.43;;
8964;SDS011;4517;49.020;12.066;2024-02-26T04:18:11;42.40;;;31.30;;
8964;SDS011;4517;49.020;12.066;2024-02-26T04:20:37;41.27;;;30.60;;
8964;SDS011;4517;49.020;12.066;2024-02-26T04:23:04;45.60;;;30.40;;
8964;SDS011;4517;49.020;12.066;2024-02-26T04:25:30;53.73;;;30.00;;
8964;SDS011;4517;49.020;12.066;2024-02-26T04:27:56;49.90;;;31.00;;
8964;SDS011;4517;49.020;12.066;2024-02-26T04:30:22;48.60;;;31.10;;
8964;SDS011;4517;49.020;12.066;2024-02-26T04:32:48;47.87;;;31.93;;
8964;SDS011;4517;49.020;12.066;2024-02-26T04:35:14;60.70;;;31.00;;
8964;SDS011;4517;49.020;12.066;2024-02-26T04:37:40;45.17;;;30.03;;
8964;SDS011;4517;49.020;12.066;2024-02-26T04:40:06;47.73;;;30.50;;
8964;SDS011;4517;49.020;12.066;2024-02-26T04:42:33;48.03;;;30.07;;
8964;SDS011;4517;49.020;12.066;2024-02-26T04:44:58;40.83;;;29.07;;
8964;SDS011;4517;49.020;12.066;2024-02-26T04:47:24;45.23;;;28.73;;
8964;SDS011;4517;49.020;12.066;2024-02-26T04:49:50;41.47;;;29.50;;
8964;SDS011;4517;49.020;12.066;2024-02-26T04:52:17;40.63;;;30.17;;
8964;SDS011;4517;49.020;12.066;2024-02-26T04:54:43;38.43;;;29.43;;
8964;SDS011;4517;49.020;12.066;2024-02-26T04:57:09;38.83;;;29.60;;
8964;SDS011;4517;49.020;12.066;2024-02-26T04:59:35;37.90;;;29.53;;
8964;SDS011;4517;49.020;12.066;2024-02-26T05:02:01;53.93;;;30.17;;
8964;SDS011;4517;49.020;12.066;2024-02-26T05:04:27;38.43;;;30.30;;
8964;SDS011;4517;49.020;12.066;2024-02-26T05:06:53;39.03;;;30.50;;
8964;SDS011;4517;49.020;12.066;2024-02-26T05:09:20;46.23;;;29.97;;
8964;SDS011;4517;49.020;12.066;2024-02-26T05:11:46;37.83;;;29.30;;
8964;SDS011;4517;49.020;12.066;2024-02-26T05:14:12;43.40;;;29.67;;
8964;SDS011;4517;49.020;12.066;2024-02-26T05:16:38;46.17;;;31.40;;
8964;SDS011;4517;49.020;12.066;2024-02-26T05:19:04;47.33;;;32.30;;
8964;SDS011;4517;49.020;12.066;2024-02-26T05:21:30;40.50;;;30.97;;
8964;SDS011;4517;49.020;12.066;2024-02-26T05:23:56;47.53;;;29.87;;
8964;SDS011;4517;49.020;12.066;2024-02-26T05:26:22;48.80;;;31.20;;
8964;SDS011;4517;49.020;12.066;2024-02-26T05:28:48;40.17;;;31.07;;
8964;SDS011;4517;49.020;12.066;2024-02-26T05:31:15;49.30;;;31.07;;
8964;SDS011;4517;49.020;12.066;2024-02-26T05:33:41;41.20;;;28.27;;
8964;SDS011;4517;49.020;12.066;2024-02-26T05:36:07;44.87;;;29.50;;
8964;SDS011;4517;49.020;12.066;2024-02-26T05:38:33;39.73;;;29.70;;
8964;SDS011;4517;49.020;12.066;2024-02-26T05:40:59;37.57;;;29.37;;
8964;SDS011;4517;49.020;12.066;2024-02-26T05:43:26;37.20;;;28.17;;
8964;SDS011;4517;49.020;12.066;2024-02-26T05:45:52;35.57;;;28.67;;
8964;SDS011;4517;49.020;12.066;2024-02-26T05:48:18;38.03;;;27.60;;
8964;SDS011;4517;49.020;12.066;2024-02-26T05:50:47;34.43;;;27.10;;
8964;SDS011;4517;49.020;12.066;2024-02-26T05:53:13;34.93;;;26.27;;
8964;SDS011;4517;49.020;12.066;2024-02-26T05:55:39;72.47;;;41.97;;
8964;SDS011;4517;49.020;12.066;2024-02-26T05:58:05;57.13;;;36.93;;
8964;SDS011;4517;49.020;12.066;2024-02-26T06:00:31;41.87;;;32.13;;
8964;SDS011;4517;49.020;12.066;2024-02-26T06:02:57;36.50;;;28.97;;
8964;SDS011;4517;49.020;12.066;2024-02-26T06:05:23;36.80;;;29.13;;
8964;SDS011;4517;49.020;12.066;2024-02-26T06:07:49;29.93;;;26.30;;
8964;SDS011;4517;49.020;12.066;2024-02-26T06:10:15;34.80;;;27.43;;
8964;SDS011;4517;49.020;12.066;2024-02-26T06:12:41;34.70;;;26.20;;
8964;SDS011;4517;49.020;12.066;2024-02-26T06:15:07;36.97;;;27.50;;
8964;SDS011;4517;49.020;12.066;2024-02-26T06:17:34;45.83;;;39.20;;
8964;SDS011;4517;49.020;12.066;2024-02-26T06:20:00;39.43;;;31.60;;
8964;SDS011;4517;49.020;12.066;2024-02-26T06:22:26;36.83;;;28.83;;
8964;SDS011;4517;49.020;12.066;2024-02-26T06:24:52;37.30;;;28.57;;
8964;SDS011;4517;49.020;12.066;2024-02-26T06:27:18;33.27;;;28.37;;
8964;SDS011;4517;49.020;12.066;2024-02-26T06:29:46;47.70;;;27.67;;
8964;SDS011;4517;49.020;12.066;2024-02-26T06:32:13;32.67;;;27.13;;
8964;SDS011;4517;49.020;12.066;2024-02-26T06:34:39;34.90;;;27.53;;
8964;SDS011;4517;49.020;12.066;2024-02-26T06:37:06;40.97;;;26.50;;
8964;SDS011;4517;49.020;12.066;2024-02-26T06:39:32;37.50;;;27.93;;
8964;SDS011;4517;49.020;12.066;2024-02-26T06:41:58;31.60;;;27.73;;
8964;SDS011;4517;49.020;12.066;2024-02-26T06:44:27;35.40;;;28.70;;
8964;SDS011;4517;49.020;12.066;2024-02-26T06:47:00;32.07;;;27.10;;
8964;SDS011;4517;49.020;12.066;2024-02-26T06:49:26;29.50;;;26.50;;
8964;SDS011;4517;49.020;12.066;2024-02-26T06:51:52;30.67;;;27.40;;
8964;SDS011;4517;49.020;12.066;2024-02-26T06:54:18;33.20;;;26.93;;
8964;SDS011;4517;49.020;12.066;2024-02-26T06:56:45;40.90;;;29.70;;
8964;SDS011;4517;49.020;12.066;2024-02-26T06:59:11;30.57;;;27.63;;
8964;SDS011;4517;49.020;12.066;2024-02-26T07:01:37;30.20;;;26.93;;
8964;SDS011;4517;49.020;12.066;2024-02-26T07:04:03;30.40;;;27.10;;
8964;SDS011;4517;49.020;12.066;2024-02-26T07:06:29;32.27;;;28.77;;
8964;SDS011;4517;49.020;12.066;2024-02-26T07:08:55;32.93;;;29.30;;
8964;SDS011;4517;49.020;12.066;2024-02-26T07:11:21;34.83;;;29.80;;
8964;SDS011;4517;49.020;12.066;2024-02-26T07:13:47;38.87;;;31.83;;
8964;SDS011;4517;49.020;12.066;2024-02-26T07:16:14;33.07;;;28.23;;
8964;SDS011;4517;49.020;12.066;2024-02-26T07:18:40;34.17;;;30.10;;
8964;SDS011;4517;49.020;12.066;2024-02-26T07:21:08;31.27;;;27.90;;
8964;SDS011;4517;49.020;12.066;2024-02-26T07:23:34;31.33;;;28.20;;
8964;SDS011;4517;49.020;12.066;2024-02-26T07:26:00;30.40;;;27.20;;
8964;SDS011;4517;49.020;12.066;2024-02-26T07:28:26;28.93;;;26.23;;
8964;SDS011;4517;49.020;12.066;2024-02-26T07:30:52;29.13;;;26.13;;
8964;SDS011;4517;49.020;12.066;2024-02-26T07:33:18;35.60;;;32.80;;
8964;SDS011;4517;49.020;12.066;2024-02-26T07:35:44;29.03;;;26.30;;
8964;SDS011;4517;49.020;12.066;2024-02-26T07:38:10;28.50;;;25.77;;
8964;SDS011;4517;49.020;12.066;2024-02-26T07:40:38;27.83;;;25.40;;
8964;SDS011;4517;49.020;12.066;2024-02-26T07:43:04;27.17;;;24.63;;
8964;SDS011;4517;49.020;12.066;2024-02-26T07:45:30;29.70;;;26.90;;
8964;SDS011;4517;49.020;12.066;2024-02-26T07:47:56;28.63;;;24.30;;
8964;SDS011;4517;49.020;12.066;2024-02-26T07:50:22;25.57;;;23.30;;
8964;SDS011;4517;49.020;12.066;2024-02-26T07:52:48;28.07;;;25.47;;
8964;SDS011;4517;49.020;12.066;2024-02-26T07:55:16;27.47;;;25.17;;
8964;SDS011;4517;49.020;12.066;2024-02-26T07:57:42;25.47;;;23.23;;
8964;SDS011;4517;49.020;12.066;2024-02-26T08:00:09;26.43;;;24.03;;
8964;SDS011;4517;49.020;12.066;2024-02-26T08:02:38;25.07;;;22.87;;
8964;SDS011;4517;49.020;12.066;2024-02-26T08:05:04;24.13;;;22.30;;
8964;SDS011;4517;49.020;12.066;2024-02-26T08:07:30;22.30;;;20.30;;
8964;SDS011;4517;49.020;12.066;2024-02-26T08:09:56;24.03;;;21.53;;
8964;SDS011;4517;49.020;12.066;2024-02-26T08:12:22;22.23;;;20.43;;
8964;SDS011;4517;49.020;12.066;2024-02-26T08:14:48;23.17;;;21.27;;
8964;SDS011;4517;49.020;12.066;2024-02-26T08:17:15;22.20;;;20.27;;
8964;SDS011;4517;49.020;12.066;2024-02-26T08:19:41;22.73;;;20.90;;
8964;SDS011;4517;49.020;12.066;2024-02-26T08:22:07;21.67;;;19.77;;
8964;SDS011;4517;49.020;12.066;2024-02-26T08:24:34;20.93;;;19.13;;
8964;SDS011;4517;49.020;12.066;2024-02-26T08:27:00;22.20;;;20.10;;
8964;SDS011;4517;49.020;12.066;2024-02-26T08:29:27;22.70;;;20.20;;
8964;SDS011;4517;49.020;12.066;2024-02-26T08:31:53;21.00;;;19.40;;
8964;SDS011;4517;49.020;12.066;2024-02-26T08:34:19;21.13;;;19.57;;
8964;SDS011;4517;49.020;12.066;2024-02-26T08:36:45;21.47;;;19.77;;
8964;SDS011;4517;49.020;12.066;2024-02-26T08:39:11;21.47;;;19.67;;
8964;SDS011;4517;49.020;12.066;2024-02-26T08:41:38;18.83;;;17.43;;
8964;SDS011;4517;49.020;12.066;2024-02-26T08:44:04;19.63;;;17.70;;
8964;SDS011;4517;49.020;12.066;2024-02-26T08:46:30;19.20;;;17.60;;
8964;SDS011;4517;49.020;12.066;2024-02-26T08:48:56;18.70;;;17.23;;
8964;SDS011;4517;49.020;12.066;2024-02-26T08:51:22;19.13;;;17.63;;
8964;SDS011;4517;49.020;12.066;2024-02-26T08:53:48;19.63;;;17.83;;
8964;SDS011;4517;49.020;12.066;2024-02-26T08:56:16;18.43;;;16.93;;
8964;SDS011;4517;49.020;12.066;2024-02-26T08:58:45;20.57;;;18.80;;
8964;SDS011;4517;49.020;12.066;2024-02-26T09:01:13;18.30;;;17.00;;
8964;SDS011;4517;49.020;12.066;2024-02-26T09:03:39;23.50;;;21.60;;
8964;SDS011;4517;49.020;12.066;2024-02-26T09:06:05;17.70;;;16.00;;
8964;SDS011;4517;49.020;12.066;2024-02-26T09:08:34;17.47;;;16.10;;
8964;SDS011;4517;49.020;12.066;2024-02-26T09:11:02;17.90;;;16.40;;
8964;SDS011;4517;49.020;12.066;2024-02-26T09:13:28;18.70;;;17.23;;
8964;SDS011;4517;49.020;12.066;2024-02-26T09:15:54;17.17;;;15.83;;
8964;SDS011;4517;49.020;12.066;2024-02-26T09:18:20;17.77;;;16.37;;
8964;SDS011;4517;49.020;12.066;2024-02-26T09:20:46;30.77;;;28.30;;
8964;SDS011;4517;49.020;12.066;2024-02-26T09:23:12;18.93;;;17.30;;
8964;SDS011;4517;49.020;12.066;2024-02-26T09:25:39;18.20;;;16.73;;
8964;SDS011;4517;49.020;12.066;2024-02-26T09:28:05;18.50;;;16.90;;
8964;SDS011;4517;49.020;12.066;2024-02-26T09:30:31;16.90;;;15.33;;
8964;SDS011;4517;49.020;12.066;2024-02-26T09:32:56;18.97;;;17.17;;
8964;SDS011;4517;49.020;12.066;2024-02-26T09:35:22;16.60;;;15.40;;
8964;SDS011;4517;49.020;12.066;2024-02-26T09:37:49;17.47;;;16.10;;
8964;SDS011;4517;49.020;12.066;2024-02-26T09:40:15;18.07;;;16.10;;
8964;SDS011;4517;49.020;12.066;2024-02-26T09:42:43;17.33;;;15.83;;
8964;SDS011;4517;49.020;12.066;2024-02-26T09:45:10;17.70;;;16.20;;
8964;SDS011;4517;49.020;12.066;2024-02-26T09:47:37;22.30;;;20.50;;
8964;SDS011;4517;49.020;12.066;2024-02-26T09:50:04;17.77;;;16.50;;
8964;SDS011;4517;49.020;12.066;2024-02-26T09:52:32;17.90;;;16.50;;
8964;SDS011;4517;49.020;12.066;2024-02-26T09:54:59;15.83;;;14.73;;
8964;SDS011;4517;49.020;12.066;2024-02-26T09:57:25;16.33;;;15.23;;
8964;SDS011;4517;49.020;12.066;2024-02-26T09:59:53;15.87;;;14.77;;
8964;SDS011;4517;49.020;12.066;2024-02-26T10:02:19;15.23;;;14.30;;
8964;SDS011;4517;49.020;12.066;2024-02-26T10:04:46;16.07;;;14.73;;
8964;SDS011;4517;49.020;12.066;2024-02-26T10:07:12;15.73;;;14.63;;
8964;SDS011;4517;49.020;12.066;2024-02-26T10:09:39;16.63;;;15.17;;
8964;SDS011;4517;49.020;12.066;2024-02-26T10:12:06;15.10;;;14.10;;
8964;SDS011;4517;49.020;12.066;2024-02-26T10:14:32;15.20;;;14.20;;
8964;SDS011;4517;49.020;12.066;2024-02-26T10:16:58;14.97;;;14.03;;
8964;SDS011;4517;49.020;12.066;2024-02-26T10:19:28;14.87;;;13.93;;
8964;SDS011;4517;49.020;12.066;2024-02-26T10:21:57;15.20;;;14.23;;
8964;SDS011;4517;49.020;12.066;2024-02-26T10:24:24;15.57;;;14.33;;
8964;SDS011;4517;49.020;12.066;2024-02-26T10:26:50;16.23;;;14.87;;
8964;SDS011;4517;49.020;12.066;2024-02-26T10:29:18;15.77;;;14.77;;
8964;SDS011;4517;49.020;12.066;2024-02-26T10:31:44;16.73;;;15.20;;
8964;SDS011;4517;49.020;12.066;2024-02-26T10:34:10;14.70;;;13.80;;
8964;SDS011;4517;49.020;12.066;2024-02-26T10:36:36;15.30;;;14.20;;
8964;SDS011;4517;49.020;12.066;2024-02-26T10:39:05;15.20;;;14.20;;
8964;SDS011;4517;49.020;12.066;2024-02-26T10:41:35;14.87;;;13.77;;
8964;SDS011;4517;49.020;12.066;2024-02-26T10:44:01;15.07;;;14.13;;
8964;SDS011;4517;49.020;12.066;2024-02-26T10:46:27;15.80;;;14.67;;
8964;SDS011;4517;49.020;12.066;2024-02-26T10:48:53;14.90;;;14.00;;
8964;SDS011;4517;49.020;12.066;2024-02-26T10:51:20;15.80;;;14.80;;
8964;SDS011;4517;49.020;12.066;2024-02-26T10:53:47;17.17;;;15.87;;
8964;SDS011;4517;49.020;12.066;2024-02-26T10:56:18;15.40;;;14.43;;
8964;SDS011;4517;49.020;12.066;2024-02-26T10:58:45;15.50;;;14.50;;
8964;SDS011;4517;49.020;12.066;2024-02-26T11:01:11;15.47;;;14.50;;
8964;SDS011;4517;49.020;12.066;2024-02-26T11:03:38;15.90;;;14.73;;
8964;SDS011;4517;49.020;12.066;2024-02-26T11:06:04;15.20;;;14.20;;
8964;SDS011;4517;49.020;12.066;2024-02-26T11:08:30;15.40;;;14.50;;
8964;SDS011;4517;49.020;12.066;2024-02-26T11:10:57;15.20;;;14.20;;
8964;SDS011;4517;49.020;12.066;2024-02-26T11:13:23;15.00;;;14.10;;
8964;SDS011;4517;49.020;12.066;2024-02-26T11:15:52;15.70;;;14.80;;
8964;SDS011;4517;49.020;12.066;2024-02-26T11:18:19;15.67;;;14.47;;
8964;SDS011;4517;49.020;12.066;2024-02-26T11:20:46;16.07;;;15.00;;
8964;SDS011;4517;49.020;12.066;2024-02-26T11:23:13;15.43;;;14.23;;
8964;SDS011;4517;49.020;12.066;2024-02-26T11:25:40;15.80;;;14.80;;
8964;SDS011;4517;49.020;12.066;2024-02-26T11:28:08;15.70;;;14.60;;
8964;SDS011;4517;49.020;12.066;2024-02-26T11:30:35;16.00;;;15.00;;
8964;SDS011;4517;49.020;12.066;2024-02-26T11:33:04;16.23;;;14.33;;
8964;SDS011;4517;49.020;12.066;2024-02-26T11:35:30;14.83;;;13.93;;
8964;SDS011;4517;49.020;12.066;2024-02-26T11:37:56;16.77;;;15.57;;
8964;SDS011;4517;49.020;12.066;2024-02-26T11:40:23;15.83;;;14.70;;
8964;SDS011;4517;49.020;12.066;2024-02-26T11:42:50;17.57;;;16.20;;
8964;SDS011;4517;49.020;12.066;2024-02-26T11:48:03;15.30;;;14.40;;
8964;SDS011;4517;49.020;12.066;2024-02-26T11:50:36;16.00;;;14.90;;
8964;SDS011;4517;49.020;12.066;2024-02-26T11:58:39;15.87;;;14.77;;
8964;SDS011;4517;49.020;12.066;2024-02-26T12:01:05;16.53;;;15.33;;
8964;SDS011;4517;49.020;12.066;2024-02-26T12:03:31;16.03;;;15.03;;
8964;SDS011;4517;49.020;12.066;2024-02-26T12:05:57;16.23;;;15.03;;
8964;SDS011;4517;49.020;12.066;2024-02-26T12:08:23;16.30;;;15.10;;
8964;SDS011;4517;49.020;12.066;2024-02-26T12:10:50;16.07;;;15.00;;
8964;SDS011;4517;49.020;12.066;2024-02-26T12:13:19;16.10;;;15.00;;
8964;SDS011;4517;49.020;12.066;2024-02-26T12:15:55;16.07;;;15.00;;
8964;SDS011;4517;49.020;12.066;2024-02-26T12:18:22;15.83;;;14.83;;
8964;SDS011;4517;49.020;12.066;2024-02-26T12:20:58;16.23;;;14.90;;
8964;SDS011;4517;49.020;12.066;2024-02-26T12:23:24;17.77;;;16.47;;
8964;SDS011;4517;49.020;12.066;2024-02-26T12:25:50;15.97;;;14.80;;
8964;SDS011;4517;49.020;12.066;2024-02-26T12:28:16;17.57;;;16.47;;
8964;SDS011;4517;49.020;12.066;2024-02-26T12:30:42;17.53;;;16.43;;
8964;SDS011;4517;49.020;12.066;2024-02-26T12:33:08;17.17;;;15.77;;
8964;SDS011;4517;49.020;12.066;2024-02-26T12:35:35;16.40;;;15.30;;
8964;SDS011;4517;49.020;12.066;2024-02-26T12:38:01;19.40;;;18.00;;
8964;SDS011;4517;49.020;12.066;2024-02-26T12:40:29;16.87;;;15.87;;
8964;SDS011;4517;49.020;12.066;2024-02-26T12:42:55;15.80;;;14.80;;
8964;SDS011;4517;49.020;12.066;2024-02-26T12:45:21;16.77;;;15.47;;
8964;SDS011;4517;49.020;12.066;2024-02-26T12:47:47;16.20;;;14.90;;
8964;SDS011;4517;49.020;12.066;2024-02-26T12:50:16;16.50;;;15.00;;
8964;SDS011;4517;49.020;12.066;2024-02-26T12:52:43;15.57;;;14.57;;
8964;SDS011;4517;49.020;12.066;2024-02-26T12:55:09;16.00;;;14.90;;
8964;SDS011;4517;49.020;12.066;2024-02-26T12:57:36;15.93;;;14.83;;
8964;SDS011;4517;49.020;12.066;2024-02-26T13:00:04;16.20;;;15.00;;
8964;SDS011;4517;49.020;12.066;2024-02-26T13:02:31;16.53;;;15.53;;
8964;SDS011;4517;49.020;12.066;2024-02-26T13:04:58;18.73;;;17.63;;
8964;SDS011;4517;49.020;12.066;2024-02-26T13:07:26;14.83;;;13.93;;
8964;SDS011;4517;49.020;12.066;2024-02-26T13:09:52;16.93;;;15.87;;
8964;SDS011;4517;49.020;12.066;2024-02-26T13:12:18;16.07;;;15.07;;
8964;SDS011;4517;49.020;12.066;2024-02-26T13:14:44;16.20;;;15.20;;
8964;SDS011;4517;49.020;12.066;2024-02-26T13:17:10;15.43;;;14.43;;
8964;SDS011;4517;49.020;12.066;2024-02-26T13:19:36;15.57;;;14.67;;
8964;SDS011;4517;49.020;12.066;2024-02-26T13:22:03;14.53;;;13.63;;
8964;SDS011;4517;49.020;12.066;2024-02-26T13:24:31;15.33;;;14.30;;
8964;SDS011;4517;49.020;12.066;2024-02-26T13:26:57;15.90;;;14.57;;
8964;SDS011;4517;49.020;12.066;2024-02-26T13:29:23;14.97;;;14.07;;
8964;SDS011;4517;49.020;12.066;2024-02-26T13:31:55;15.00;;;14.00;;
8964;SDS011;4517;49.020;12.066;2024-02-26T13:34:26;15.40;;;14.27;;
8964;SDS011;4517;49.020;12.066;2024-02-26T13:36:52;15.23;;;14.23;;
8964;SDS011;4517;49.020;12.066;2024-02-26T13:39:22;14.20;;;13.33;;
8964;SDS011;4517;49.020;12.066;2024-02-26T13:41:49;15.10;;;14.10;;
8964;SDS011;4517;49.020;12.066;2024-02-26T13:44:14;15.03;;;14.03;;
8964;SDS011;4517;49.020;12.066;2024-02-26T13:46:40;15.30;;;14.40;;
8964;SDS011;4517;49.020;12.066;2024-02-26T13:49:07;14.83;;;14.03;;
8964;SDS011;4517;49.020;12.066;2024-02-26T13:51:34;15.27;;;14.37;;
8964;SDS011;4517;49.020;12.066;2024-02-26T13:54:00;15.20;;;14.20;;
8964;SDS011;4517;49.020;12.066;2024-02-26T13:56:26;15.37;;;14.27;;
8964;SDS011;4517;49.020;12.066;2024-02-26T13:58:52;15.40;;;14.57;;
8964;SDS011;4517;49.020;12.066;2024-02-26T14:01:18;15.83;;;14.83;;
8964;SDS011;4517;49.020;12.066;2024-02-26T14:03:44;16.00;;;15.00;;
8964;SDS011;4517;49.020;12.066;2024-02-26T14:06:11;26.07;;;24.67;;
8964;SDS011;4517;49.020;12.066;2024-02-26T14:08:37;17.07;;;15.77;;
8964;SDS011;4517;49.020;12.066;2024-02-26T14:11:02;16.67;;;15.57;;
8964;SDS011;4517;49.020;12.066;2024-02-26T14:13:28;18.07;;;16.57;;
8964;SDS011;4517;49.020;12.066;2024-02-26T14:15:54;16.63;;;15.50;;
8964;SDS011;4517;49.020;12.066;2024-02-26T14:18:21;17.87;;;16.60;;
8964;SDS011;4517;49.020;12.066;2024-02-26T14:20:47;17.10;;;15.90;;
8964;SDS011;4517;49.020;12.066;2024-02-26T14:23:13;18.93;;;17.53;;
8964;SDS011;4517;49.020;12.066;2024-02-26T14:25:39;18.00;;;16.70;;
8964;SDS011;4517;49.020;12.066;2024-02-26T14:28:05;18.67;;;17.07;;
8964;SDS011;4517;49.020;12.066;2024-02-26T14:30:31;18.60;;;17.00;;
8964;SDS011;4517;49.020;12.066;2024-02-26T14:32:57;18.40;;;16.80;;
8964;SDS011;4517;49.020;12.066;2024-02-26T14:35:23;18.20;;;16.90;;
8964;SDS011;4517;49.020;12.066;2024-02-26T14:37:51;17.93;;;16.43;;